Time;durP1;ratioP1;P1;durP2;ratioP2;P2;SDS_P1;SDS_P2;PMS_P1;PMS_P2;Temp;Humidity;BMP_temperature;BMP_pressure;BME280_temperature;BME280_humidity;BME280_pressure;Samples;Min_cycle;Max_cycle;Signal;HPM_P1;HPM_P2
2021/07/01 00:00:11;;;;;;;20.70;16.27;;;15.80;19.80;16.50;100262.00;;;;5055614;28;20448;-74
2021/07/01 00:02:40;;;;;;;18.13;16.20;;;15.90;20.10;16.60;100277.00;;;;5025354;28;20574;-76
2021/07/01 00:05:13;;;;;;;18.80;14.53;;;15.80;20.20;16.50;100240.00;;;;5046789;28;20476;-76
2021/07/01 00:07:42;;;;;;;19.07;15.60;;;15.80;20.40;16.60;100263.00;;;;5022925;28;20550;-76
2021/07/01 00:10:14;;;;;;;19.03;15.87;;;15.80;21.00;16.60;100263.00;;;;5039279;28;20464;-75
2021/07/01 00:12:42;;;;;;;19.37;15.47;;;15.80;20.70;16.60;100265.00;;;;5026266;28;20550;-75
2021/07/01 00:15:15;;;;;;;17.33;15.50;;;15.80;20.80;16.60;100270.00;;;;5044766;28;20469;-78
2021/07/01 00:17:44;;;;;;;20.90;15.47;;;15.80;21.00;16.60;100260.00;;;;5062222;28;20448;-77
2021/07/01 00:20:15;;;;;;;17.37;14.87;;;15.80;20.70;16.60;100264.00;;;;5040200;28;21457;-76
2021/07/01 00:22:44;;;;;;;16.13;14.43;;;15.80;20.40;16.10;100264.00;;;;5039589;28;20527;-73
2021/07/01 00:25:15;;;;;;;16.40;14.40;;;15.80;20.20;16.50;100251.00;;;;5041062;28;20482;-77
2021/07/01 00:27:44;;;;;;;16.10;13.27;;;15.70;20.00;16.50;100273.00;;;;5044558;28;20569;-76
2021/07/01 00:30:15;;;;;;;14.50;12.93;;;15.70;20.00;16.50;100266.00;;;;5043064;28;20451;-75
2021/07/01 00:32:44;;;;;;;14.13;11.90;;;15.70;19.80;16.50;100264.00;;;;5046191;28;20493;-77
2021/07/01 00:35:15;;;;;;;15.87;14.17;;;15.70;19.90;16.50;100227.00;;;;5042027;28;20478;-75
2021/07/01 00:37:44;;;;;;;16.87;14.13;;;15.70;20.00;16.50;100266.00;;;;5042562;28;20475;-76
2021/07/01 00:40:14;;;;;;;14.63;13.13;;;15.70;19.90;16.50;100261.00;;;;5043808;28;20495;-75
2021/07/01 00:42:43;;;;;;;14.47;12.23;;;15.70;20.10;16.50;100251.00;;;;5041722;28;20451;-75
2021/07/01 00:45:13;;;;;;;16.47;14.13;;;15.70;20.00;16.50;100265.00;;;;5048468;28;20479;-77
2021/07/01 00:47:42;;;;;;;16.57;13.60;;;15.70;20.00;16.50;100263.00;;;;5045271;28;20452;-76
2021/07/01 00:50:16;;;;;;;14.00;12.50;;;15.70;19.90;16.50;100265.00;;;;5047337;28;20490;-78
2021/07/01 00:52:45;;;;;;;12.50;11.17;;;15.70;19.70;16.50;100256.00;;;;5051590;28;20472;-76
2021/07/01 00:55:14;;;;;;;14.70;13.00;;;15.70;19.30;16.40;100257.00;;;;5038956;28;20472;-77
2021/07/01 00:57:44;;;;;;;13.13;11.83;;;15.70;19.70;16.50;100265.00;;;;5055419;28;20459;-78
2021/07/01 01:03:00;;;;;;;13.47;12.00;;;15.70;19.80;16.50;100270.00;;;;5037341;28;20948;-77
2021/07/01 01:05:30;;;;;;;16.43;13.43;;;15.70;20.10;16.50;100271.00;;;;5054070;28;20471;-77
2021/07/01 01:08:00;;;;;;;15.27;13.03;;;15.70;20.30;16.50;100269.00;;;;5045294;28;20449;-78
2021/07/01 01:10:29;;;;;;;15.03;12.20;;;15.70;20.40;16.50;100268.00;;;;5055426;28;20470;-78
2021/07/01 01:13:33;;;;;;;10.00;9.00;;;15.80;20.30;16.40;100275.00;;;;5055384;28;20499;-76
2021/07/01 01:16:33;;;;;;;11.33;10.13;;;15.80;20.30;16.50;100266.00;;;;5023768;28;20459;-78
2021/07/01 01:19:05;;;;;;;11.70;10.50;;;15.80;20.10;16.50;100284.00;;;;5037296;28;20550;-78
2021/07/01 01:21:36;;;;;;;11.93;10.73;;;15.80;19.90;16.60;100290.00;;;;5036799;28;21212;-77
2021/07/01 01:24:07;;;;;;;13.57;11.07;;;15.80;19.90;16.50;100284.00;;;;5049701;28;20503;-78
2021/07/01 01:26:38;;;;;;;12.00;10.87;;;15.70;19.90;16.50;100240.00;;;;5045594;28;20460;-76
2021/07/01 01:29:07;;;;;;;11.93;10.20;;;15.80;20.20;16.50;100267.00;;;;5056997;28;20478;-76
2021/07/01 01:31:37;;;;;;;10.40;9.27;;;15.80;20.40;16.50;100269.00;;;;5053279;28;20456;-77
2021/07/01 01:34:06;;;;;;;10.57;9.33;;;15.80;19.90;16.50;100261.00;;;;5057269;28;20503;-78
2021/07/01 01:36:35;;;;;;;11.10;8.80;;;15.80;19.90;16.40;100275.00;;;;5054176;28;20548;-76
2021/07/01 01:39:04;;;;;;;10.07;9.03;;;15.80;19.90;16.50;100250.00;;;;5050513;28;20573;-78
2021/07/01 01:41:40;;;;;;;9.70;8.50;;;15.80;20.00;16.50;100238.00;;;;5037507;28;20460;-77
2021/07/01 01:44:08;;;;;;;8.03;6.90;;;15.80;19.70;16.50;100266.00;;;;5039812;28;20551;-77
2021/07/01 01:46:39;;;;;;;8.77;7.97;;;15.80;19.40;16.40;100250.00;;;;5057680;28;20448;-76
2021/07/01 01:49:10;;;;;;;8.00;7.20;;;15.70;18.50;16.50;100251.00;;;;5055168;28;20466;-76
2021/07/01 01:51:40;;;;;;;7.00;6.30;;;15.70;18.50;16.40;100267.00;;;;5057821;28;20987;-76
2021/07/01 01:54:09;;;;;;;9.00;8.10;;;15.70;18.30;16.50;100262.00;;;;5036673;28;20479;-76
2021/07/01 01:56:46;;;;;;;6.03;5.43;;;15.70;18.30;16.40;100283.00;;;;5046888;28;20460;-73
2021/07/01 01:59:41;;;;;;;5.60;4.67;;;15.70;17.30;16.40;100270.00;;;;5052013;28;20463;-76
2021/07/01 02:02:48;;;;;;;6.17;4.67;;;15.70;16.20;16.40;100267.00;;;;4989883;28;20602;-77
2021/07/01 02:05:39;;;;;;;8.33;5.00;;;15.70;16.20;16.30;100266.00;;;;4986369;28;20471;-76
2021/07/01 02:08:09;;;;;;;4.27;3.87;;;15.60;15.30;16.40;100272.00;;;;5028151;28;20448;-76
2021/07/01 02:10:39;;;;;;;4.20;3.13;;;15.60;15.70;16.30;100280.00;;;;5047840;28;21126;-77
2021/07/01 02:13:11;;;;;;;4.60;3.97;;;15.70;14.50;16.30;100284.00;;;;5029856;28;20937;-76
2021/07/01 02:16:15;;;;;;;4.60;3.40;;;15.70;14.40;16.20;100276.00;;;;5044728;28;20451;-77
2021/07/01 02:18:46;;;;;;;4.33;3.90;;;15.60;13.90;16.20;100261.00;;;;5047550;28;20455;-77
2021/07/01 02:21:15;;;;;;;3.70;2.73;;;15.60;14.90;16.20;100268.00;;;;5045642;28;21036;-75
2021/07/01 02:23:43;;;;;;;3.53;2.87;;;15.60;13.80;16.00;100266.00;;;;5058178;28;20467;-75
2021/07/01 02:26:13;;;;;;;3.10;2.80;;;15.50;13.40;16.20;100253.00;;;;5051156;28;20440;-75
2021/07/01 02:28:44;;;;;;;5.23;3.33;;;15.50;14.10;16.20;100246.00;;;;5037261;28;20528;-76
2021/07/01 02:31:35;;;;;;;3.43;3.13;;;15.50;13.90;16.20;100267.00;;;;5047739;28;21186;-75
2021/07/01 02:34:04;;;;;;;3.33;3.03;;;15.50;14.10;16.20;100268.00;;;;5048930;28;20494;-76
2021/07/01 02:36:59;;;;;;;3.87;3.27;;;15.50;13.90;16.20;100275.00;;;;5013891;28;20436;-75
2021/07/01 02:39:45;;;;;;;3.63;3.33;;;15.50;14.10;16.20;100273.00;;;;5047424;28;20673;-75
2021/07/01 02:42:14;;;;;;;3.50;3.20;;;15.50;13.60;16.20;100282.00;;;;5027506;28;20456;-75
2021/07/01 02:44:44;;;;;;;3.60;3.30;;;15.50;12.50;16.20;100294.00;;;;5044545;28;20982;-77
2021/07/01 02:47:48;;;;;;;4.53;4.10;;;15.50;11.30;16.10;100284.00;;;;5040831;28;20455;-76
2021/07/01 02:50:17;;;;;;;5.13;4.20;;;15.40;11.80;16.10;100281.00;;;;5029633;28;20456;-76
2021/07/01 02:52:46;;;;;;;4.43;4.00;;;15.40;11.70;16.10;100278.00;;;;5029502;28;20479;-75
2021/07/01 02:55:15;;;;;;;4.03;3.63;;;15.40;12.00;16.10;100265.00;;;;5027471;28;20480;-74
2021/07/01 02:57:44;;;;;;;5.43;4.93;;;15.40;11.80;16.10;100275.00;;;;5037194;28;20450;-74
2021/07/01 03:00:16;;;;;;;5.60;5.10;;;15.40;10.90;16.00;100281.00;;;;5045690;28;20459;-74
2021/07/01 03:02:55;;;;;;;5.07;4.67;;;15.30;9.90;16.00;100283.00;;;;5031555;28;20459;-74
2021/07/01 03:05:49;;;;;;;5.60;5.10;;;15.30;10.00;16.00;100257.00;;;;5048293;28;20468;-74
2021/07/01 03:08:18;;;;;;;7.60;5.30;;;15.30;10.30;16.00;100280.00;;;;5028355;28;20513;-75
2021/07/01 03:10:50;;;;;;;7.00;5.73;;;15.30;10.40;16.00;100288.00;;;;5033690;28;20463;-76
2021/07/01 03:13:19;;;;;;;6.60;6.00;;;15.30;10.20;16.00;100283.00;;;;5027111;28;20480;-75
2021/07/01 03:15:51;;;;;;;7.20;6.20;;;15.30;10.20;15.60;100299.00;;;;5049059;28;20483;-75
2021/07/01 03:18:19;;;;;;;7.10;6.40;;;15.20;9.30;15.80;100299.00;;;;5044271;28;20451;-76
2021/07/01 03:21:10;;;;;;;8.27;7.47;;;15.20;9.00;15.80;100292.00;;;;5044436;28;21413;-75
2021/07/01 03:23:48;;;;;;;7.90;7.10;;;15.20;9.30;15.90;100294.00;;;;5044113;28;20470;-74
2021/07/01 03:26:19;;;;;;;11.87;7.23;;;15.20;9.80;15.90;100300.00;;;;5027869;28;21067;-76
2021/07/01 03:28:47;;;;;;;10.77;8.87;;;15.30;10.00;15.90;100285.00;;;;5043548;28;20448;-76
2021/07/01 03:31:18;;;;;;;10.30;9.20;;;15.30;9.40;16.00;100253.00;;;;5027510;28;20567;-75
2021/07/01 03:33:47;;;;;;;12.60;11.30;;;15.30;9.10;15.90;100284.00;;;;5042837;28;21028;-74
2021/07/01 03:36:16;;;;;;;13.37;11.97;;;15.30;7.80;16.00;100288.00;;;;5047400;28;20440;-75
2021/07/01 03:38:56;;;;;;;14.17;12.80;;;15.30;8.00;15.90;100285.00;;;;5045674;28;20829;-75
2021/07/01 03:41:45;;;;;;;14.77;13.17;;;15.30;5.30;15.90;100293.00;;;;5047223;28;20448;-75
2021/07/01 03:44:16;;;;;;;15.17;13.67;;;15.20;6.20;15.90;100294.00;;;;5035360;28;20472;-74
2021/07/01 03:46:45;;;;;;;16.23;14.63;;;15.20;5.90;15.90;100288.00;;;;5047106;28;20514;-75
2021/07/01 03:49:14;;;;;;;14.70;13.30;;;15.20;6.30;15.90;100291.00;;;;5027865;28;20479;-76
2021/07/01 03:51:48;;;;;;;18.30;15.57;;;15.20;5.10;15.90;100295.00;;;;5046195;28;20451;-74
2021/07/01 03:54:32;;;;;;;17.57;15.33;;;15.20;5.40;15.90;100289.00;;;;5045770;28;20509;-76
2021/07/01 03:57:06;;;;;;;16.97;15.30;;;15.20;5.60;15.90;100297.00;;;;5042910;28;21242;-76
2021/07/01 03:59:47;;;;;;;16.93;15.13;;;15.20;5.40;15.90;100296.00;;;;5045954;28;21059;-75
2021/07/01 04:02:36;;;;;;;16.13;14.43;;;15.20;4.40;15.90;100296.00;;;;5047834;28;20488;-75
2021/07/01 04:05:14;;;;;;;15.27;13.60;;;15.20;4.20;15.90;100269.00;;;;5027592;28;21421;-76
2021/07/01 04:07:46;;;;;;;14.40;13.00;;;15.20;4.30;15.90;100297.00;;;;5047571;28;20591;-74
2021/07/01 04:10:17;;;;;;;18.33;14.87;;;15.20;4.60;15.90;100314.00;;;;5029648;28;20474;-74
2021/07/01 04:12:57;;;;;;;16.57;15.07;;;15.30;4.80;16.10;100325.00;;;;5047343;28;20455;-74
2021/07/01 04:15:32;;;;;;;15.43;13.97;;;15.40;5.00;16.10;100315.00;;;;5047392;28;20617;-76
2021/07/01 04:18:20;;;;;;;14.63;13.13;;;15.40;4.40;16.20;100321.00;;;;5047179;28;20459;-73
2021/07/01 04:21:08;;;;;;;13.47;12.03;;;15.50;5.30;16.20;100331.00;;;;5048417;28;20512;-74
2021/07/01 04:23:56;;;;;;;13.17;11.87;;;15.50;4.20;16.20;100326.00;;;;5048655;28;20497;-74
2021/07/01 04:26:28;;;;;;;14.70;11.83;;;15.50;3.40;16.20;100336.00;;;;5047151;28;20455;-75
2021/07/01 04:28:58;;;;;;;12.53;10.63;;;15.50;3.20;16.30;100332.00;;;;5047393;28;20452;-75
2021/07/01 04:31:27;;;;;;;12.83;11.53;;;15.50;3.30;16.30;100330.00;;;;5028851;28;21047;-75
2021/07/01 04:34:02;;;;;;;11.77;10.60;;;15.50;3.50;16.30;100325.00;;;;5030232;28;20491;-76
2021/07/01 04:36:30;;;;;;;12.43;11.23;;;15.50;3.10;16.30;100331.00;;;;5047407;28;20452;-74
2021/07/01 04:39:00;;;;;;;13.93;11.33;;;15.50;3.10;16.30;100339.00;;;;5044564;28;20526;-75
2021/07/01 04:41:34;;;;;;;9.13;8.23;;;15.50;3.40;16.20;100337.00;;;;5045856;28;20447;-74
2021/07/01 04:44:03;;;;;;;9.23;8.33;;;15.60;2.60;16.10;100303.00;;;;5027647;28;21115;-75
2021/07/01 04:46:32;;;;;;;8.57;7.70;;;15.60;2.20;16.20;100287.00;;;;5029828;28;20837;-74
2021/07/01 04:49:07;;;;;;;10.60;9.10;;;15.60;1.50;16.20;100276.00;;;;5031131;28;20501;-75
2021/07/01 04:51:54;;;;;;;8.93;7.53;;;15.60;1.90;16.20;100320.00;;;;5027639;28;20471;-76
2021/07/01 04:54:41;;;;;;;8.80;7.90;;;15.60;1.50;16.20;100334.00;;;;5045227;28;20494;-74
2021/07/01 04:57:36;;;;;;;8.00;6.90;;;15.60;1.10;16.20;100324.00;;;;5027398;28;20455;-74
2021/07/01 05:00:07;;;;;;;7.97;7.17;;;15.50;1.00;16.20;100336.00;;;;5026169;28;20703;-74
2021/07/01 05:02:54;;;;;;;10.37;6.77;;;15.60;1.00;16.20;100337.00;;;;5044812;28;20513;-74
2021/07/01 05:05:28;;;;;;;8.20;7.40;;;15.60;1.00;16.30;100320.00;;;;5026283;28;20571;-75
2021/07/01 05:07:59;;;;;;;8.20;7.40;;;15.60;1.00;16.30;100335.00;;;;5044779;28;20459;-74
2021/07/01 05:10:28;;;;;;;8.33;7.17;;;15.70;1.00;16.30;100324.00;;;;5026654;28;20541;-75
2021/07/01 05:13:02;;;;;;;12.23;7.57;;;15.70;1.00;16.40;100321.00;;;;5044499;28;20550;-73
2021/07/01 05:15:31;;;;;;;8.40;7.10;;;15.70;1.00;16.40;100340.00;;;;5044883;28;20820;-74
2021/07/01 05:18:06;;;;;;;9.50;6.30;;;15.70;1.00;16.40;100338.00;;;;5044426;28;20463;-76
2021/07/01 05:20:39;;;;;;;8.80;7.03;;;15.80;1.00;16.40;100334.00;;;;5027330;28;20455;-75
2021/07/01 05:23:26;;;;;;;8.03;7.03;;;15.80;1.00;16.40;100343.00;;;;5046159;28;20486;-75
2021/07/01 05:26:13;;;;;;;8.10;7.23;;;15.80;1.00;16.40;100306.00;;;;5043814;28;20617;-74
2021/07/01 05:29:14;;;;;;;13.57;8.13;;;15.70;1.00;16.30;100349.00;;;;5004843;28;20467;-77
2021/07/01 05:32:21;;;;;;;8.87;7.27;;;15.70;1.00;16.30;100361.00;;;;5064297;28;20489;-76
2021/07/01 05:35:19;;;;;;;9.63;7.13;;;15.70;1.70;16.30;100358.00;;;;5054500;28;20495;-74
2021/07/01 05:37:52;;;;;;;8.50;6.33;;;15.70;2.40;16.30;100364.00;;;;5053406;28;20436;-75
2021/07/01 05:40:22;;;;;;;9.50;7.20;;;15.60;1.00;16.20;100364.00;;;;5034334;28;20527;-74
2021/07/01 05:42:52;;;;;;;7.00;6.10;;;15.60;1.00;16.20;100358.00;;;;5046365;28;20502;-74
2021/07/01 05:45:21;;;;;;;6.77;6.00;;;15.50;1.00;16.20;100364.00;;;;5042168;28;21510;-75
2021/07/01 05:47:49;;;;;;;10.50;6.57;;;15.60;1.10;16.20;100366.00;;;;5043364;28;20452;-74
2021/07/01 05:50:18;;;;;;;7.30;5.63;;;15.60;1.00;16.20;100341.00;;;;5044424;28;20463;-76
2021/07/01 05:52:49;;;;;;;5.10;4.60;;;15.60;1.00;16.30;100353.00;;;;5044366;28;20456;-75
2021/07/01 05:55:19;;;;;;;8.47;5.30;;;15.60;1.00;16.30;100354.00;;;;5046410;28;20472;-74
2021/07/01 05:57:47;;;;;;;7.63;4.30;;;15.60;1.00;16.30;100361.00;;;;5044746;28;20452;-74
2021/07/01 06:00:18;;;;;;;6.47;4.73;;;15.70;1.00;16.30;100367.00;;;;5045157;28;20456;-75
2021/07/01 06:02:49;;;;;;;8.63;4.50;;;15.70;1.00;16.30;100365.00;;;;5040876;28;20456;-74
2021/07/01 06:05:18;;;;;;;7.60;5.07;;;15.70;1.00;16.30;100363.00;;;;5043707;28;20561;-77
2021/07/01 06:08:09;;;;;;;5.63;4.47;;;15.60;1.00;16.20;100336.00;;;;5039828;28;20616;-77
2021/07/01 06:10:42;;;;;;;7.10;4.73;;;15.50;1.00;15.90;100351.00;;;;5040803;28;20797;-75
2021/07/01 06:13:12;;;;;;;10.50;4.57;;;15.50;1.00;16.10;100371.00;;;;5044321;28;20471;-75
2021/07/01 06:15:40;;;;;;;8.33;4.27;;;15.50;1.00;16.10;100361.00;;;;5020711;28;21417;-74
2021/07/01 06:18:09;;;;;;;5.43;4.60;;;15.50;1.00;15.90;100378.00;;;;5042029;28;20463;-74
2021/07/01 06:20:38;;;;;;;6.00;4.40;;;15.50;1.40;16.10;100363.00;;;;5042575;28;20527;-77
2021/07/01 06:23:07;;;;;;;4.03;3.60;;;15.50;1.50;16.10;100360.00;;;;5024654;28;20466;-75
2021/07/01 06:25:35;;;;;;;4.10;3.53;;;15.50;1.70;16.00;100376.00;;;;5042529;28;20503;-76
2021/07/01 06:28:06;;;;;;;4.83;3.70;;;15.40;1.80;15.90;100372.00;;;;5044364;28;21588;-77
2021/07/01 06:30:37;;;;;;;4.53;4.10;;;15.30;2.00;15.80;100373.00;;;;5027836;28;20559;-76
2021/07/01 06:33:06;;;;;;;6.87;3.43;;;15.20;1.90;15.80;100378.00;;;;5040254;28;21351;-76
2021/07/01 06:35:34;;;;;;;6.70;3.50;;;15.20;3.30;15.80;100381.00;;;;5041844;28;20913;-77
2021/07/01 06:38:12;;;;;;;6.10;3.70;;;15.20;3.90;15.80;100398.00;;;;5025487;28;20462;-75
2021/07/01 06:41:08;;;;;;;4.50;3.93;;;15.20;4.10;15.80;100391.00;;;;5040059;28;20448;-77
2021/07/01 06:43:57;;;;;;;4.23;3.47;;;15.20;4.40;15.90;100389.00;;;;5042834;28;20526;-75
2021/07/01 06:46:44;;;;;;;5.97;3.30;;;15.30;4.90;15.90;100391.00;;;;5042002;28;20475;-75
2021/07/01 06:49:32;;;;;;;3.83;3.07;;;15.30;4.20;15.80;100389.00;;;;5039759;28;20443;-75
2021/07/01 06:52:33;;;;;;;4.37;3.20;;;15.20;4.10;15.80;100400.00;;;;5032725;28;20455;-75
2021/07/01 06:55:22;;;;;;;5.93;3.83;;;15.10;4.80;15.70;100403.00;;;;5044015;28;20475;-75
2021/07/01 06:58:14;;;;;;;4.20;2.87;;;15.10;5.70;15.70;100411.00;;;;5040928;28;20564;-77
2021/07/01 07:00:44;;;;;;;3.70;3.23;;;15.00;6.50;15.60;100395.00;;;;5047806;28;20475;-77
2021/07/01 07:03:17;;;;;;;3.10;2.53;;;14.90;7.00;15.60;100402.00;;;;5049459;28;20937;-76
2021/07/01 07:05:49;;;;;;;3.60;2.67;;;14.90;6.80;15.60;100380.00;;;;5028745;28;20522;-75
2021/07/01 07:08:18;;;;;;;3.40;2.70;;;14.90;6.60;15.60;100405.00;;;;5046195;28;20452;-75
2021/07/01 07:10:47;;;;;;;6.43;3.53;;;14.90;6.70;15.70;100402.00;;;;5048876;28;20535;-75
2021/07/01 07:13:16;;;;;;;4.23;2.70;;;15.00;6.30;15.80;100403.00;;;;5033797;28;20466;-76
2021/07/01 07:15:47;;;;;;;3.40;3.10;;;15.10;5.70;15.90;100386.00;;;;5050377;28;20482;-76
2021/07/01 07:18:19;;;;;;;3.27;2.87;;;15.20;5.40;15.90;100365.00;;;;5030845;28;20486;-75
2021/07/01 07:20:56;;;;;;;3.20;2.70;;;15.30;4.60;16.00;100397.00;;;;5029271;28;20447;-73
2021/07/01 07:23:30;;;;;;;3.00;2.70;;;15.40;1.70;16.00;100402.00;;;;5048519;28;20452;-74
2021/07/01 07:26:01;;;;;;;2.90;2.60;;;15.40;1.20;16.00;100392.00;;;;5029262;28;20487;-73
2021/07/01 07:28:37;;;;;;;4.50;3.30;;;15.50;1.20;16.10;100392.00;;;;5029383;28;20452;-76
2021/07/01 07:31:07;;;;;;;4.40;3.70;;;15.50;1.00;16.40;100396.00;;;;5045361;28;20548;-73
2021/07/01 07:33:36;;;;;;;8.30;3.80;;;15.70;1.00;16.60;100382.00;;;;5042888;28;20513;-74
2021/07/01 07:36:05;;;;;;;7.77;3.97;;;15.90;1.00;16.70;100405.00;;;;5028597;28;20468;-73
2021/07/01 07:38:33;;;;;;;8.90;4.60;;;16.00;1.00;16.70;100395.00;;;;5042513;28;20622;-76
2021/07/01 07:41:02;;;;;;;12.47;5.17;;;16.10;1.00;16.70;100390.00;;;;5025071;28;20458;-76
2021/07/01 07:43:30;;;;;;;12.63;5.17;;;16.10;1.00;16.80;100399.00;;;;5048562;28;20687;-74
2021/07/01 07:45:58;;;;;;;6.77;4.40;;;16.20;1.00;16.80;100411.00;;;;5042634;28;20541;-75
2021/07/01 07:48:28;;;;;;;3.97;3.40;;;16.30;1.00;16.80;100407.00;;;;5046442;28;20444;-77
2021/07/01 07:50:57;;;;;;;13.13;4.87;;;16.40;1.00;17.10;100382.00;;;;5048884;28;20452;-75
2021/07/01 07:53:31;;;;;;;4.47;2.70;;;16.60;1.00;17.40;100378.00;;;;5047204;28;20499;-76
2021/07/01 07:56:04;;;;;;;4.23;3.20;;;16.80;1.00;17.40;100405.00;;;;5043020;28;20561;-75
2021/07/01 07:58:38;;;;;;;8.20;4.20;;;16.90;1.00;17.70;100409.00;;;;5045419;28;20991;-77
2021/07/01 08:01:10;;;;;;;4.30;3.67;;;17.20;1.00;17.80;100393.00;;;;5046377;28;20470;-75
2021/07/01 08:03:42;;;;;;;4.97;3.73;;;17.40;1.00;18.10;100387.00;;;;5045506;28;20542;-76
2021/07/01 08:06:12;;;;;;;10.13;4.60;;;17.60;1.00;18.50;100407.00;;;;5044410;28;20868;-76
2021/07/01 08:08:44;;;;;;;6.00;4.10;;;17.80;1.00;18.70;100402.00;;;;5041723;28;20495;-76
2021/07/01 08:11:18;;;;;;;6.83;4.70;;;18.00;1.00;18.90;100398.00;;;;5041428;28;20481;-76
2021/07/01 08:13:50;;;;;;;8.67;4.80;;;18.10;1.00;18.90;100397.00;;;;5038057;28;20455;-76
2021/07/01 08:16:18;;;;;;;6.50;4.63;;;18.10;1.00;18.90;100380.00;;;;5038340;28;20471;-75
2021/07/01 08:18:50;;;;;;;7.57;4.57;;;18.10;1.00;18.60;100415.00;;;;5041349;28;20817;-75
2021/07/01 08:21:19;;;;;;;5.83;4.97;;;18.10;1.00;18.70;100416.00;;;;5038514;28;20458;-76
2021/07/01 08:23:48;;;;;;;6.70;4.80;;;17.90;1.00;18.60;100412.00;;;;5042876;28;20869;-76
2021/07/01 08:26:17;;;;;;;9.50;5.07;;;17.80;1.00;18.50;100394.00;;;;5039954;28;20486;-78
2021/07/01 08:28:46;;;;;;;8.70;5.13;;;17.70;1.00;18.40;100423.00;;;;5044522;28;20484;-74
2021/07/01 08:31:17;;;;;;;7.10;5.60;;;17.70;1.00;18.50;100416.00;;;;5042493;28;20456;-75
2021/07/01 08:33:50;;;;;;;6.17;4.80;;;17.70;1.00;18.50;100414.00;;;;5044391;28;21608;-76
2021/07/01 08:36:20;;;;;;;6.50;4.97;;;17.70;1.00;18.70;100407.00;;;;5025717;28;20903;-74
2021/07/01 08:38:50;;;;;;;8.10;4.50;;;17.80;1.00;18.80;100383.00;;;;5044748;28;20462;-75
2021/07/01 08:41:22;;;;;;;5.90;5.03;;;17.90;1.00;18.80;100413.00;;;;5043219;28;20454;-76
2021/07/01 08:43:54;;;;;;;12.43;5.60;;;17.90;1.00;18.90;100415.00;;;;5046500;28;20454;-77
2021/07/01 08:46:28;;;;;;;4.77;4.20;;;18.00;1.00;19.00;100413.00;;;;5052271;28;20455;-77
2021/07/01 08:49:07;;;;;;;5.37;4.23;;;18.10;1.00;19.10;100410.00;;;;5058309;28;20443;-77
2021/07/01 08:51:37;;;;;;;7.23;4.40;;;18.30;1.00;19.30;100414.00;;;;5068624;28;20815;-77
2021/07/01 08:54:29;;;;;;;5.47;4.33;;;18.40;1.00;19.30;100395.00;;;;5063525;28;20472;-74
2021/07/01 08:56:59;;;;;;;6.10;4.27;;;18.40;1.00;19.30;100411.00;;;;5051859;28;20479;-77
2021/07/01 08:59:39;;;;;;;6.70;3.50;;;18.50;1.00;19.50;100435.00;;;;5049310;28;20456;-75
2021/07/01 09:02:11;;;;;;;5.30;3.33;;;18.60;1.00;19.60;100419.00;;;;5029040;28;21053;-77
2021/07/01 09:04:50;;;;;;;3.87;2.77;;;18.80;1.00;19.80;100422.00;;;;5036185;28;20906;-78
2021/07/01 09:07:23;;;;;;;5.03;2.83;;;18.80;1.00;19.90;100417.00;;;;5043050;28;20995;-76
2021/07/01 09:09:56;;;;;;;3.60;3.00;;;18.90;1.00;20.20;100409.00;;;;5028277;28;21051;-75
2021/07/01 09:12:26;;;;;;;3.10;2.60;;;19.10;1.00;20.30;100414.00;;;;5048869;28;20448;-78
2021/07/01 09:14:58;;;;;;;3.97;2.57;;;19.20;1.00;20.30;100425.00;;;;5046917;28;20467;-77
2021/07/01 09:17:29;;;;;;;3.00;2.70;;;19.20;1.00;20.20;100423.00;;;;5048884;28;20476;-75
2021/07/01 09:20:02;;;;;;;2.93;2.30;;;19.20;1.00;20.00;100411.00;;;;5046374;28;20463;-75
2021/07/01 09:22:30;;;;;;;4.67;2.83;;;19.00;1.00;20.00;100427.00;;;;5047158;28;20505;-77
2021/07/01 09:24:59;;;;;;;3.87;2.60;;;18.80;1.00;20.10;100429.00;;;;5043912;28;20467;-75
2021/07/01 09:27:29;;;;;;;8.03;2.83;;;18.70;1.00;20.10;100431.00;;;;5044904;28;20458;-78
2021/07/01 09:29:58;;;;;;;5.03;2.90;;;18.80;1.00;20.20;100330.00;;;;5023689;28;20889;-78
2021/07/01 09:32:29;;;;;;;3.20;2.20;;;18.80;1.00;20.30;100435.00;;;;5050473;28;20466;-75
2021/07/01 09:34:58;;;;;;;3.50;2.20;;;19.00;1.00;20.30;100436.00;;;;5033643;28;20500;-76
2021/07/01 09:37:40;;;;;;;4.83;2.10;;;19.10;1.00;20.30;100449.00;;;;5046762;28;20610;-76
2021/07/01 09:40:10;;;;;;;4.00;2.57;;;19.20;1.00;20.10;100430.00;;;;5026576;28;20456;-76
2021/07/01 09:42:40;;;;;;;3.53;2.60;;;19.10;1.00;19.90;100410.00;;;;5045175;28;20496;-77
2021/07/01 09:45:11;;;;;;;6.30;3.00;;;18.80;1.00;19.50;100445.00;;;;5046819;28;20571;-76
2021/07/01 09:47:46;;;;;;;4.73;2.30;;;18.50;1.00;19.50;100449.00;;;;5045623;28;20460;-78
2021/07/01 09:50:16;;;;;;;5.80;2.90;;;18.40;1.00;19.50;100430.00;;;;5047745;28;20576;-77
2021/07/01 09:52:45;;;;;;;5.63;2.43;;;18.30;1.00;19.50;100427.00;;;;5045887;28;20464;-80
2021/07/01 09:55:14;;;;;;;3.40;2.20;;;18.40;1.00;19.50;100384.00;;;;5049478;28;20471;-77
2021/07/01 09:57:47;;;;;;;2.90;2.60;;;18.40;1.00;19.70;100438.00;;;;5048007;28;20488;-75
2021/07/01 10:00:16;;;;;;;2.30;2.00;;;18.60;1.00;19.80;100413.00;;;;5045802;28;20452;-76
2021/07/01 10:02:45;;;;;;;5.30;1.73;;;18.70;1.00;19.90;100428.00;;;;5027116;28;20542;-76
2021/07/01 10:05:28;;;;;;;3.30;1.90;;;18.80;1.00;19.80;100428.00;;;;5043033;28;20490;-77
2021/07/01 10:07:57;;;;;;;3.40;2.00;;;18.70;1.00;19.80;100451.00;;;;5045322;28;20448;-76
2021/07/01 10:10:26;;;;;;;3.90;2.00;;;18.70;1.00;19.60;100445.00;;;;5027035;28;20467;-76
2021/07/01 10:12:56;;;;;;;3.73;1.70;;;18.50;1.00;19.30;100439.00;;;;5040724;28;20558;-76
2021/07/01 10:15:29;;;;;;;4.53;1.67;;;18.40;1.00;19.00;100439.00;;;;5048537;28;20476;-75
2021/07/01 10:18:07;;;;;;;1.77;1.30;;;18.00;1.00;18.80;100446.00;;;;5048058;28;20483;-76
2021/07/01 10:20:57;;;;;;;2.63;1.20;;;17.80;1.00;18.60;100456.00;;;;5025178;28;21016;-74
2021/07/01 10:23:28;;;;;;;1.47;1.03;;;17.70;1.00;18.40;100446.00;;;;5026638;28;20478;-76
2021/07/01 10:26:00;;;;;;;1.83;0.87;;;17.60;1.00;18.20;100461.00;;;;5040416;28;20862;-77
2021/07/01 10:28:31;;;;;;;5.37;1.00;;;17.50;1.00;18.00;100444.00;;;;5049477;28;20463;-76
2021/07/01 10:31:02;;;;;;;3.67;1.23;;;17.30;1.00;17.90;100439.00;;;;5046090;28;20509;-77
2021/07/01 10:33:33;;;;;;;3.27;1.50;;;17.10;1.00;18.00;100429.00;;;;5028854;28;20868;-77
2021/07/01 10:36:05;;;;;;;1.30;0.80;;;17.10;1.00;18.10;100445.00;;;;5043800;28;20484;-76
2021/07/01 10:38:45;;;;;;;2.53;1.17;;;17.30;1.00;18.50;100436.00;;;;5047196;28;20545;-76
2021/07/01 10:41:28;;;;;;;2.87;1.30;;;17.50;1.00;18.90;100442.00;;;;5040309;28;20482;-75
2021/07/01 10:43:58;;;;;;;2.03;1.00;;;17.90;1.00;19.20;100447.00;;;;5048708;28;20480;-77
2021/07/01 10:46:38;;;;;;;1.70;1.20;;;18.10;1.00;19.20;100452.00;;;;5022662;28;20462;-77
2021/07/01 10:49:07;;;;;;;4.00;1.90;;;18.30;1.00;19.30;100449.00;;;;5025807;28;20455;-75
2021/07/01 10:51:56;;;;;;;6.23;2.30;;;18.30;1.00;19.30;100457.00;;;;5048077;28;20471;-76
2021/07/01 10:54:25;;;;;;;5.20;2.37;;;18.40;1.00;19.40;100447.00;;;;5031832;28;20472;-75
2021/07/01 10:57:08;;;;;;;3.20;2.90;;;18.40;1.00;19.40;100435.00;;;;5052752;28;20486;-76
2021/07/01 10:59:52;;;;;;;9.57;4.00;;;18.50;1.00;19.50;100452.00;;;;5030083;28;20459;-75
2021/07/01 11:02:25;;;;;;;3.20;2.90;;;18.60;1.00;19.80;100449.00;;;;5040707;28;20478;-77
2021/07/01 11:04:56;;;;;;;4.03;3.43;;;18.90;1.00;20.10;100450.00;;;;5031310;28;20472;-77
2021/07/01 11:07:27;;;;;;;6.23;3.90;;;19.10;1.00;20.30;100445.00;;;;5030781;28;20456;-73
2021/07/01 11:09:57;;;;;;;3.77;3.37;;;19.30;1.00;20.50;100430.00;;;;5042064;28;20464;-75
2021/07/01 11:12:27;;;;;;;7.33;3.97;;;19.50;1.00;20.50;100428.00;;;;5043067;28;20470;-75
2021/07/01 11:14:57;;;;;;;5.83;4.33;;;19.50;1.00;20.30;100437.00;;;;5021764;28;20868;-75
2021/07/01 11:17:34;;;;;;;4.43;3.80;;;19.40;1.00;20.20;100442.00;;;;5045580;28;20483;-75
2021/07/01 11:20:16;;;;;;;5.33;3.80;;;19.30;1.00;20.00;100450.00;;;;5045993;28;20460;-76